Time;durP1;ratioP1;P1;durP2;ratioP2;P2;SDS_P1;SDS_P2;PMS_P1;PMS_P2;Temp;Humidity;BMP_temperature;BMP_pressure;BME280_temperature;BME280_humidity;BME280_pressure;Samples;Min_cycle;Max_cycle;Signal;HPM_P1;HPM_P2
2023/07/03 00:02:57;;;;;;;6.32;3.50;;;;;;;20.14;84.92;99901.94;5586865;31;33981;-66
2023/07/03 00:06:01;;;;;;;10.27;4.10;;;;;;;20.17;84.60;99906.84;5585870;31;34189;-67
2023/07/03 00:09:05;;;;;;;7.07;3.60;;;;;;;20.19;84.58;99910.09;5587183;31;35001;-66
2023/07/03 00:12:09;;;;;;;7.90;3.67;;;;;;;20.21;84.78;99912.56;5586713;31;34577;-66
2023/07/03 00:15:13;;;;;;;5.50;3.80;;;;;;;20.19;84.77;99920.06;5586719;31;33799;-68
2023/07/03 00:18:16;;;;;;;8.45;3.80;;;;;;;20.21;84.81;99915.25;5586869;31;34401;-67
2023/07/03 00:21:19;;;;;;;6.53;4.03;;;;;;;20.18;85.07;99927.34;5586723;31;33670;-67
2023/07/03 00:24:21;;;;;;;10.45;3.83;;;;;;;20.09;86.23;99931.44;5586693;31;34884;-68
2023/07/03 00:27:24;;;;;;;5.47;3.95;;;;;;;19.99;87.66;99939.37;5586598;31;34007;-67
2023/07/03 00:30:27;;;;;;;7.15;3.83;;;;;;;19.94;88.51;99929.28;5586583;31;33733;-68
2023/07/03 00:33:30;;;;;;;9.45;4.22;;;;;;;19.90;89.48;99932.69;5585540;31;34876;-67
2023/07/03 00:36:32;;;;;;;7.15;4.00;;;;;;;19.75;91.09;99935.91;5586400;31;33758;-67
2023/07/03 00:39:36;;;;;;;9.68;4.00;;;;;;;19.74;91.65;99934.28;5586403;31;34614;-66
2023/07/03 00:42:41;;;;;;;7.93;4.18;;;;;;;19.76;91.56;99937.53;5586698;31;33941;-68
2023/07/03 00:45:43;;;;;;;9.85;4.53;;;;;;;19.75;91.88;99937.81;5586342;31;33942;-68
2023/07/03 00:48:46;;;;;;;6.43;4.35;;;;;;;19.62;93.18;99938.03;5586106;31;34002;-67
2023/07/03 00:51:53;;;;;;;5.68;4.00;;;;;;;19.55;94.55;99932.00;5586177;31;33960;-67
2023/07/03 00:54:57;;;;;;;8.45;3.83;;;;;;;19.68;93.47;99934.41;5586147;31;33930;-67
2023/07/03 00:58:00;;;;;;;6.15;4.10;;;;;;;19.59;94.19;99933.97;5586105;31;34150;-68
2023/07/03 01:01:27;;;;;;;6.87;4.07;;;;;;;19.53;95.23;99934.91;5586093;31;33914;-67
2023/07/03 01:04:54;;;;;;;5.97;3.92;;;;;;;19.50;95.99;99943.47;5588782;31;34229;-68
2023/07/03 01:07:59;;;;;;;7.62;4.60;;;;;;;19.39;96.92;99933.50;5588244;31;33783;-67
2023/07/03 01:11:02;;;;;;;9.20;4.30;;;;;;;19.37;97.12;99939.09;5588317;31;33577;-68
2023/07/03 01:14:07;;;;;;;6.22;4.00;;;;;;;19.30;98.35;99945.69;5588336;31;33872;-66
2023/07/03 01:17:11;;;;;;;8.15;4.30;;;;;;;19.27;98.85;99938.88;5588183;31;34888;-68
2023/07/03 01:20:17;;;;;;;7.03;4.30;;;;;;;19.18;99.75;99947.53;5588190;31;33821;-67
2023/07/03 01:23:25;;;;;;;8.68;4.03;;;;;;;19.16;100.00;99952.34;5588280;31;34411;-68
2023/07/03 01:26:28;;;;;;;9.43;4.22;;;;;;;19.13;100.00;99948.22;5588193;31;33879;-67
2023/07/03 01:29:33;;;;;;;7.20;4.28;;;;;;;19.15;100.00;99939.94;5588574;31;33841;-67
2023/07/03 01:32:38;;;;;;;7.15;4.35;;;;;;;19.15;100.00;99935.38;5588213;31;34727;-67
2023/07/03 01:35:42;;;;;;;7.32;4.32;;;;;;;19.05;100.00;99941.34;5588500;31;34405;-67
2023/07/03 01:38:47;;;;;;;6.53;4.05;;;;;;;19.02;100.00;99938.31;5588025;31;33985;-68
2023/07/03 01:41:51;;;;;;;7.28;4.57;;;;;;;18.97;100.00;99938.19;5588138;31;33932;-67
2023/07/03 01:44:54;;;;;;;8.60;4.70;;;;;;;19.00;100.00;99938.53;5588424;31;34449;-68
2023/07/03 01:47:56;;;;;;;7.37;4.37;;;;;;;19.09;100.00;99939.00;5588024;31;33817;-67
2023/07/03 01:51:02;;;;;;;8.60;4.43;;;;;;;19.02;100.00;99936.44;5587907;31;34441;-66
2023/07/03 01:54:21;;;;;;;7.43;4.30;;;;;;;18.96;100.00;99929.31;5588350;31;33804;-67
2023/07/03 01:57:44;;;;;;;;;;;;;;;18.88;100.00;99923.47;5588659;31;34119;-66
2023/07/03 02:00:59;;;;;;;8.75;4.10;;;;;;;18.79;100.00;99920.28;5587992;31;34792;-67
2023/07/03 02:04:07;;;;;;;7.80;4.43;;;;;;;18.79;100.00;99936.41;5588326;31;33695;-67
2023/07/03 02:07:12;;;;;;;7.22;4.12;;;;;;;18.73;100.00;99934.66;5587929;31;34666;-67
2023/07/03 02:10:15;;;;;;;9.70;4.53;;;;;;;18.66;100.00;99933.94;5587729;31;32674;-67
2023/07/03 02:13:18;;;;;;;8.98;5.07;;;;;;;18.61;100.00;99921.19;5587742;31;33999;-67
2023/07/03 02:16:21;;;;;;;7.10;4.70;;;;;;;18.55;100.00;99932.03;5587757;31;34599;-67
2023/07/03 02:19:28;;;;;;;5.57;4.25;;;;;;;18.53;100.00;99934.97;5587995;31;33840;-67
2023/07/03 02:22:31;;;;;;;8.27;4.80;;;;;;;18.46;100.00;99947.66;5587805;31;33643;-67
2023/07/03 02:25:34;;;;;;;9.63;4.62;;;;;;;18.47;100.00;99948.47;5587748;31;34448;-67
2023/07/03 02:28:36;;;;;;;8.15;4.57;;;;;;;18.52;100.00;99946.75;5586835;31;33792;-67
2023/07/03 02:31:40;;;;;;;6.80;4.40;;;;;;;18.62;100.00;99940.84;5588091;31;33768;-68
2023/07/03 02:34:42;;;;;;;6.82;4.80;;;;;;;18.59;100.00;99941.28;5587732;31;33671;-68
2023/07/03 02:37:45;;;;;;;8.45;5.00;;;;;;;18.60;100.00;99943.75;5587676;31;33701;-67
2023/07/03 02:40:48;;;;;;;9.80;4.45;;;;;;;18.62;100.00;99947.03;5587381;31;34083;-68
2023/07/03 02:43:50;;;;;;;8.18;4.47;;;;;;;18.65;100.00;99956.47;5587686;31;34548;-68
2023/07/03 02:46:53;;;;;;;7.25;4.80;;;;;;;18.64;100.00;99952.16;5587645;31;33923;-68
2023/07/03 02:49:56;;;;;;;6.45;4.65;;;;;;;18.59;100.00;99949.34;5587285;31;34359;-67
2023/07/03 02:53:00;;;;;;;8.32;4.30;;;;;;;18.60;100.00;99951.81;5587917;31;34457;-67
2023/07/03 02:56:03;;;;;;;6.85;4.70;;;;;;;18.56;100.00;99956.00;5587489;31;34909;-68
2023/07/03 02:59:07;;;;;;;7.00;4.70;;;;;;;18.52;100.00;99965.53;5587356;31;33907;-68
2023/07/03 03:02:10;;;;;;;8.20;4.62;;;;;;;18.49;100.00;99968.66;5587749;31;34512;-68
2023/07/03 03:05:13;;;;;;;10.13;4.45;;;;;;;18.41;100.00;99960.94;5587349;31;33621;-67
2023/07/03 03:08:16;;;;;;;7.30;4.80;;;;;;;18.38;100.00;99968.66;5587347;31;34711;-68
2023/07/03 03:11:19;;;;;;;7.80;4.75;;;;;;;18.36;100.00;99955.44;5587118;31;34101;-68
2023/07/03 03:14:22;;;;;;;11.07;5.00;;;;;;;18.42;100.00;99961.75;5587638;31;33714;-68
2023/07/03 03:17:25;;;;;;;7.57;4.62;;;;;;;18.52;100.00;99964.72;5587291;31;33833;-68
2023/07/03 03:20:28;;;;;;;8.38;4.65;;;;;;;18.51;100.00;99971.13;5587252;31;34584;-68
2023/07/03 03:23:31;;;;;;;8.27;4.70;;;;;;;18.52;98.84;99976.28;5587091;31;34528;-68
2023/07/03 03:26:33;;;;;;;10.98;5.43;;;;;;;18.62;97.25;99979.28;5586550;31;33620;-68
2023/07/03 03:29:38;;;;;;;12.20;4.82;;;;;;;18.65;96.39;99970.75;5587098;31;33946;-68
2023/07/03 03:32:42;;;;;;;11.00;4.57;;;;;;;18.64;96.58;99971.78;5587180;31;35343;-68
2023/07/03 03:35:46;;;;;;;8.50;5.15;;;;;;;18.73;96.81;99977.66;5587202;31;33709;-68
2023/07/03 03:38:49;;;;;;;8.35;4.90;;;;;;;18.72;95.59;99977.87;5587127;31;32606;-68
2023/07/03 03:41:52;;;;;;;9.07;4.95;;;;;;;18.72;94.41;99976.03;5587343;31;33865;-69
2023/07/03 03:44:54;;;;;;;10.65;4.85;;;;;;;18.92;92.61;99983.78;5587026;31;34480;-69
2023/07/03 03:47:57;;;;;;;10.40;5.00;;;;;;;18.89;91.38;99982.34;5587308;31;33565;-69
2023/07/03 03:51:01;;;;;;;9.68;4.90;;;;;;;19.01;91.32;99985.87;5586953;31;33604;-69
2023/07/03 03:54:04;;;;;;;11.85;4.85;;;;;;;19.07;88.86;99986.84;5587110;31;33771;-69
2023/07/03 03:57:07;;;;;;;10.40;4.82;;;;;;;19.10;88.85;99989.03;5586971;31;33894;-69
2023/07/03 04:00:20;;;;;;;9.88;4.90;;;;;;;19.15;88.73;99996.41;5587194;31;33789;-69
2023/07/03 04:03:23;;;;;;;10.02;5.03;;;;;;;19.16;89.21;100003.44;5587032;31;34444;-69
2023/07/03 04:06:26;;;;;;;11.52;5.03;;;;;;;19.28;87.96;100002.38;5586984;31;33743;-69
2023/07/03 04:09:29;;;;;;;10.75;5.20;;;;;;;19.22;92.20;100007.91;5586779;31;33725;-69
2023/07/03 04:12:32;;;;;;;9.18;5.05;;;;;;;19.26;91.07;100009.06;5586672;31;34791;-69
2023/07/03 04:15:51;;;;;;;8.13;4.82;;;;;;;19.28;91.58;100004.25;5585339;31;33865;-69
2023/07/03 04:18:54;;;;;;;12.25;4.87;;;;;;;19.29;91.50;100012.09;5586672;31;34019;-69
2023/07/03 04:21:57;;;;;;;9.20;5.18;;;;;;;19.38;91.97;100023.31;5586920;31;34535;-69
2023/07/03 04:25:01;;;;;;;9.30;4.97;;;;;;;19.49;89.05;100017.16;5587118;31;33854;-70
2023/07/03 04:28:05;;;;;;;7.62;4.78;;;;;;;19.47;89.31;100021.94;5585808;31;34788;-69
2023/07/03 04:31:07;;;;;;;9.13;5.15;;;;;;;19.52;89.37;100022.06;5586654;31;34536;-70
2023/07/03 04:34:10;;;;;;;12.80;4.95;;;;;;;19.59;92.06;100022.78;5585834;31;33553;-69
2023/07/03 04:37:13;;;;;;;29.33;5.70;;;;;;;19.65;88.92;100031.78;5586270;31;33709;-69
2023/07/03 04:40:17;;;;;;;8.40;4.72;;;;;;;19.77;91.29;100033.41;5586631;31;33991;-70
2023/07/03 04:43:21;;;;;;;10.75;4.75;;;;;;;19.86;90.11;100033.84;5586380;31;33882;-70
2023/07/03 04:46:28;;;;;;;18.05;5.20;;;;;;;19.84;86.39;100034.09;5586411;31;34529;-69
2023/07/03 04:49:32;;;;;;;10.35;4.70;;;;;;;19.98;87.77;100044.59;5586256;31;34427;-69
2023/07/03 04:52:36;;;;;;;9.60;6.10;;;;;;;20.06;88.06;100042.34;5583599;31;33694;-69
2023/07/03 04:55:38;;;;;;;9.35;4.93;;;;;;;20.17;87.75;100049.59;5586085;31;34414;-68
2023/07/03 04:58:41;;;;;;;9.68;4.95;;;;;;;20.22;85.62;100049.69;5586443;31;33800;-70
2023/07/03 05:01:44;;;;;;;9.50;4.97;;;;;;;20.23;86.30;100053.22;5585951;31;34523;-70
2023/07/03 05:04:47;;;;;;;10.05;4.87;;;;;;;20.26;89.78;100050.84;5585974;31;33889;-70
2023/07/03 05:07:49;;;;;;;10.95;4.75;;;;;;;20.29;92.75;100057.63;5585573;31;34015;-70
2023/07/03 05:10:52;;;;;;;7.90;4.93;;;;;;;20.26;86.00;100058.13;5585651;31;34458;-70
2023/07/03 05:13:55;;;;;;;7.97;4.87;;;;;;;20.39;85.58;100063.25;5584604;31;34094;-70
2023/07/03 05:16:58;;;;;;;7.62;4.45;;;;;;;20.46;85.41;100063.94;5584757;31;33564;-69
2023/07/03 05:20:02;;;;;;;8.52;4.85;;;;;;;20.66;83.32;100061.66;5585542;31;34359;-70
2023/07/03 05:23:05;;;;;;;14.70;4.65;;;;;;;20.75;85.64;100068.28;5584516;31;33746;-70
2023/07/03 05:26:07;;;;;;;7.72;4.43;;;;;;;20.81;81.52;100055.72;5584611;31;33773;-71
2023/07/03 05:29:10;;;;;;;10.43;4.85;;;;;;;20.88;79.10;100061.75;5585311;31;33935;-70
2023/07/03 05:32:13;;;;;;;9.93;4.75;;;;;;;20.95;79.04;100067.84;5578250;31;33810;-70
2023/07/03 05:35:15;;;;;;;7.47;4.20;;;;;;;21.04;75.49;100066.38;5585102;31;33760;-70
2023/07/03 05:38:19;;;;;;;8.95;4.47;;;;;;;21.14;73.35;100079.25;5584956;31;34989;-69
2023/07/03 05:41:24;;;;;;;7.70;4.20;;;;;;;21.25;73.75;100079.16;5580526;31;34522;-70
2023/07/03 05:44:27;;;;;;;8.55;4.30;;;;;;;21.27;71.74;100089.72;5584227;31;33979;-70
2023/07/03 05:47:30;;;;;;;8.05;4.12;;;;;;;21.36;72.68;100090.94;5573136;31;34759;-69
2023/07/03 05:50:33;;;;;;;6.72;3.90;;;;;;;21.57;70.27;100092.09;5568141;31;33686;-70
2023/07/03 05:53:35;;;;;;;6.97;4.37;;;;;;;21.72;68.50;100084.22;5579015;31;33820;-70
2023/07/03 05:56:38;;;;;;;11.40;4.25;;;;;;;21.61;68.86;100091.34;5587408;31;34593;-71
2023/07/03 05:59:41;;;;;;;9.70;3.70;;;;;;;21.72;68.92;100100.41;5587460;31;34185;-70
2023/07/03 06:02:45;;;;;;;11.77;3.70;;;;;;;21.80;65.44;100104.56;5587590;31;33648;-69
2023/07/03 06:05:48;;;;;;;7.60;4.00;;;;;;;22.01;66.37;100098.44;5587765;31;33520;-70
2023/07/03 06:08:51;;;;;;;10.13;4.22;;;;;;;22.05;66.36;100097.69;5580401;31;34778;-70
2023/07/03 06:11:55;;;;;;;9.73;3.83;;;;;;;22.16;65.66;100105.94;5576051;31;34299;-71
2023/07/03 06:15:00;;;;;;;6.50;3.97;;;;;;;22.24;64.26;100110.88;5578052;31;33802;-71
2023/07/03 06:18:03;;;;;;;10.82;4.20;;;;;;;22.33;64.32;100101.28;5576440;31;34616;-69
2023/07/03 06:21:06;;;;;;;14.32;4.47;;;;;;;22.51;63.90;100107.19;5574423;31;34511;-69
2023/07/03 06:24:11;;;;;;;7.95;4.03;;;;;;;22.67;63.73;100113.59;5572747;31;34278;-69
2023/07/03 06:27:14;;;;;;;10.73;3.92;;;;;;;22.85;61.09;100113.25;5587061;31;33905;-70
2023/07/03 06:30:17;;;;;;;91.15;6.37;;;;;;;22.89;62.02;100113.59;5578154;31;34413;-71
2023/07/03 06:33:21;;;;;;;6.22;3.60;;;;;;;23.12;60.11;100115.16;5581905;31;33678;-70
2023/07/03 06:36:25;;;;;;;7.62;3.33;;;;;;;23.08;58.48;100114.87;5578917;31;33898;-70
2023/07/03 06:39:27;;;;;;;9.35;3.40;;;;;;;23.07;59.65;100115.94;5593898;31;34288;-69
2023/07/03 06:42:31;;;;;;;5.87;3.00;;;;;;;23.22;57.07;100113.38;5568901;31;33843;-70
2023/07/03 06:45:36;;;;;;;8.30;3.87;;;;;;;23.40;57.91;100112.16;5577817;31;34046;-71
2023/07/03 06:48:39;;;;;;;9.30;3.53;;;;;;;23.59;57.80;100110.72;5587351;31;34789;-70
2023/07/03 06:51:42;;;;;;;6.95;3.97;;;;;;;23.75;56.88;100104.34;5586058;31;33693;-69
2023/07/03 06:54:48;;;;;;;6.07;3.20;;;;;;;23.87;55.66;100098.72;5576148;31;34056;-71
2023/07/03 06:57:50;;;;;;;10.57;3.50;;;;;;;24.03;52.83;100096.91;5580671;31;33816;-69
2023/07/03 07:00:53;;;;;;;10.50;3.30;;;;;;;24.10;53.25;100105.66;5573110;31;33865;-71
2023/07/03 07:03:57;;;;;;;8.75;3.28;;;;;;;24.37;49.26;100113.66;5567263;32;34902;-68
2023/07/03 07:07:00;;;;;;;13.85;3.20;;;;;;;24.32;49.66;100113.62;5571931;31;33673;-71
2023/07/03 07:10:03;;;;;;;7.28;3.08;;;;;;;24.35;48.32;100116.62;5566551;32;34537;-71
2023/07/03 07:13:06;;;;;;;6.70;3.15;;;;;;;24.48;49.02;100113.44;5581022;31;33906;-69
2023/07/03 07:16:18;;;;;;;5.37;3.08;;;;;;;24.55;47.78;100114.00;5579445;31;34072;-70
2023/07/03 07:19:21;;;;;;;;;;;;;;;24.85;46.66;100116.00;5572905;31;34864;-69
2023/07/03 07:22:23;;;;;;;7.15;3.15;;;;;;;25.15;45.96;100119.88;5567043;32;34792;-71
2023/07/03 07:25:27;;;;;;;8.48;3.55;;;;;;;25.65;44.60;100121.81;5577703;31;33950;-71
2023/07/03 07:28:30;;;;;;;11.68;3.25;;;;;;;25.91;41.51;100118.78;5585780;31;34471;-71
2023/07/03 07:31:36;;;;;;;9.30;3.35;;;;;;;25.75;41.39;100114.50;5586797;31;34824;-70
2023/07/03 07:34:43;;;;;;;8.55;4.12;;;;;;;26.14;42.45;100111.13;5581350;31;33827;-70
2023/07/03 07:37:45;;;;;;;12.32;5.05;;;;;;;26.06;37.36;100112.50;5586545;31;34810;-69
2023/07/03 07:40:49;;;;;;;12.10;4.35;;;;;;;25.73;37.37;100116.66;5571718;31;33885;-74
2023/07/03 07:43:52;;;;;;;7.95;4.75;;;;;;;26.09;37.59;100117.41;5567361;32;33736;-73
2023/07/03 07:46:55;;;;;;;10.75;4.40;;;;;;;26.87;36.60;100112.19;5566887;32;34032;-73
2023/07/03 07:49:58;;;;;;;15.00;5.10;;;;;;;27.20;35.44;100116.91;5560262;32;232034;-74
2023/07/03 07:53:01;;;;;;;7.32;4.30;;;;;;;27.82;34.88;100106.31;5567075;31;33756;-73
2023/07/03 07:56:07;;;;;;;9.60;4.93;;;;;;;27.70;34.22;100120.31;5567357;32;35378;-73
2023/07/03 07:59:09;;;;;;;9.95;4.85;;;;;;;28.09;32.59;100118.28;5566542;32;33993;-74
2023/07/03 08:02:12;;;;;;;10.43;5.03;;;;;;;27.94;32.15;100114.91;5566839;32;33757;-72
2023/07/03 08:05:15;;;;;;;10.10;5.43;;;;;;;29.41;31.99;100134.88;5566926;32;34293;-75
2023/07/03 08:08:18;;;;;;;10.85;5.47;;;;;;;28.63;31.08;100128.03;5566975;32;33907;-74
2023/07/03 08:11:21;;;;;;;12.75;5.43;;;;;;;29.00;31.90;100127.25;5566133;32;34848;-73
2023/07/03 08:14:23;;;;;;;10.25;5.18;;;;;;;29.41;30.37;100129.41;5566968;32;33580;-73
2023/07/03 08:17:26;;;;;;;13.25;5.68;;;;;;;29.11;31.37;100120.56;5566793;32;33817;-74
2023/07/03 08:20:29;;;;;;;15.40;6.25;;;;;;;29.59;32.36;100117.63;5565862;32;33616;-72
2023/07/03 08:23:32;;;;;;;18.37;6.47;;;;;;;28.72;32.24;100120.84;5567247;31;34190;-73
2023/07/03 08:26:34;;;;;;;11.18;6.12;;;;;;;28.88;32.13;100122.25;5572804;31;35432;-71
2023/07/03 08:29:37;;;;;;;41.45;7.10;;;;;;;29.82;30.87;100127.63;5572356;31;33746;-72
2023/07/03 08:32:40;;;;;;;12.45;6.03;;;;;;;30.19;31.54;100129.41;5565475;32;33780;-75
2023/07/03 08:35:44;;;;;;;9.35;5.45;;;;;;;30.76;30.03;100127.97;5585054;31;34028;-72
2023/07/03 08:38:49;;;;;;;9.35;5.60;;;;;;;30.30;30.42;100122.63;5581959;31;33976;-71
2023/07/03 08:42:04;;;;;;;10.00;5.87;;;;;;;30.74;30.29;100121.19;5579916;31;33734;-73
2023/07/03 08:45:12;;;;;;;10.52;6.53;;;;;;;31.29;29.08;100119.91;5585368;31;35867;-71
2023/07/03 08:48:24;;;;;;;11.83;6.40;;;;;;;31.74;29.11;100128.13;5585531;31;34757;-73
2023/07/03 08:51:29;;;;;;;10.30;5.50;;;;;;;33.33;26.57;100140.56;5585222;31;34484;-73
2023/07/03 08:54:35;;;;;;;10.98;6.07;;;;;;;33.66;26.57;100133.38;5585863;31;34792;-73
2023/07/03 08:57:38;;;;;;;12.75;6.07;;;;;;;34.00;27.02;100135.25;5585417;31;34181;-73
2023/07/03 09:01:06;;;;;;;14.73;6.32;;;;;;;35.06;25.46;100133.22;5577583;31;34804;-73
2023/07/03 09:04:24;;;;;;;11.63;5.90;;;;;;;33.32;27.50;100126.00;5566370;31;33657;-73
2023/07/03 09:07:41;;;;;;;11.20;6.28;;;;;;;34.50;25.09;100138.16;5565054;32;34468;-71
2023/07/03 09:10:47;;;;;;;10.32;6.20;;;;;;;31.56;27.97;100119.00;5567365;31;34022;-74
2023/07/03 09:13:54;;;;;;;13.30;7.12;;;;;;;33.09;27.12;100133.59;5570595;31;33901;-71
2023/07/03 09:16:57;;;;;;;10.60;7.30;;;;;;;32.15;26.95;100133.34;5566773;31;34347;-74
2023/07/03 09:20:02;;;;;;;11.80;7.93;;;;;;;33.06;25.38;100128.75;5584762;31;33831;-68
2023/07/03 09:23:20;;;;;;;13.00;7.65;;;;;;;32.72;25.33;100134.22;5581695;31;34379;-71
2023/07/03 09:26:30;;;;;;;14.50;8.20;;;;;;;31.85;26.92;100130.31;5568141;32;33941;-73
2023/07/03 09:29:35;;;;;;;13.18;7.40;;;;;;;31.90;26.94;100135.63;5568271;31;34608;-72
2023/07/03 09:32:39;;;;;;;17.12;8.80;;;;;;;31.46;26.96;100124.72;5586256;31;33560;-73
2023/07/03 09:35:42;;;;;;;14.75;7.65;;;;;;;33.72;25.30;100140.38;5587457;31;33966;-74
2023/07/03 09:38:45;;;;;;;16.52;7.95;;;;;;;33.49;25.96;100134.25;5583802;31;33965;-71
2023/07/03 09:41:48;;;;;;;14.23;7.95;;;;;;;33.07;25.50;100132.28;5586741;31;33600;-71
2023/07/03 09:44:51;;;;;;;10.55;7.35;;;;;;;35.33;23.54;100141.00;5589750;31;33829;-71
2023/07/03 09:47:57;;;;;;;11.52;7.28;;;;;;;35.83;22.05;100134.47;5592427;31;33963;-72
2023/07/03 09:51:06;;;;;;;15.25;7.78;;;;;;;37.30;21.17;100147.91;5588353;31;35328;-71
2023/07/03 09:54:22;;;;;;;14.23;7.68;;;;;;;35.69;22.65;100138.38;5571907;31;33929;-72
2023/07/03 09:57:26;;;;;;;10.82;7.45;;;;;;;34.04;23.85;100130.72;5579514;31;35050;-72
2023/07/03 10:00:31;;;;;;;10.35;7.28;;;;;;;35.88;23.64;100131.50;5567670;32;33862;-74
2023/07/03 10:03:35;;;;;;;14.75;7.97;;;;;;;35.24;23.83;100123.72;5567485;32;33812;-70
2023/07/03 10:06:50;;;;;;;13.95;7.43;;;;;;;33.22;25.31;100129.09;5567867;32;33872;-72
2023/07/03 10:09:53;;;;;;;10.95;7.50;;;;;;;33.52;25.62;100121.78;5567804;32;34661;-75
2023/07/03 10:13:16;;;;;;;12.48;7.60;;;;;;;35.51;22.91;100116.78;5567390;32;33776;-72
2023/07/03 10:16:23;;;;;;;18.98;7.82;;;;;;;35.07;23.65;100118.31;5565816;32;34221;-73
2023/07/03 10:19:27;;;;;;;12.27;7.70;;;;;;;34.44;25.24;100117.44;5567440;32;33773;-73
2023/07/03 10:22:31;;;;;;;12.90;7.90;;;;;;;34.78;24.90;100120.00;5571050;31;34203;-71
2023/07/03 10:25:39;;;;;;;15.20;7.87;;;;;;;35.04;23.86;100119.81;5566989;32;34465;-72
2023/07/03 10:29:00;;;;;;;15.05;8.38;;;;;;;34.29;23.80;100118.00;5568060;32;34597;-72
2023/07/03 10:32:15;;;;;;;14.10;8.40;;;;;;;33.61;24.43;100123.38;5567617;32;34374;-73
2023/07/03 10:35:30;;;;;;;13.23;8.68;;;;;;;33.06;25.03;100122.44;5567942;32;33967;-71
2023/07/03 10:38:43;;;;;;;15.80;7.70;;;;;;;32.11;26.83;100122.19;5569608;31;34603;-73
2023/07/03 10:41:54;;;;;;;10.95;7.82;;;;;;;34.16;24.29;100122.56;5571070;31;33618;-69
2023/07/03 10:45:03;;;;;;;11.57;7.87;;;;;;;35.85;22.05;100130.25;5561264;31;34529;-69
2023/07/03 10:48:23;;;;;;;14.07;8.00;;;;;;;34.74;22.63;100132.84;5571453;31;33817;-70
2023/07/03 10:51:42;;;;;;;14.50;8.40;;;;;;;34.36;23.35;100130.12;5573197;31;33770;-73
2023/07/03 10:54:55;;;;;;;17.40;8.05;;;;;;;34.94;22.64;100125.72;5567375;32;34164;-73
2023/07/03 10:58:26;;;;;;;11.95;6.95;;;;;;;35.20;23.36;100117.25;5567422;32;34040;-74
2023/07/03 11:01:41;;;;;;;15.80;7.50;;;;;;;33.82;24.62;100120.75;5567357;32;33916;-72
2023/07/03 11:05:03;;;;;;;9.48;6.80;;;;;;;37.01;22.27;100132.41;5567408;32;34653;-72
2023/07/03 11:08:33;;;;;;;18.42;7.55;;;;;;;37.35;21.23;100126.31;5567156;32;33817;-70
2023/07/03 11:11:45;;;;;;;14.07;7.62;;;;;;;35.19;23.35;100121.97;5566348;31;33661;-71
2023/07/03 11:15:12;;;;;;;21.75;8.18;;;;;;;34.64;23.81;100124.13;5567591;32;34402;-73
2023/07/03 11:18:38;;;;;;;11.88;7.85;;;;;;;36.27;22.41;100117.06;5583538;31;34587;-70
2023/07/03 11:22:09;;;;;;;13.10;7.80;;;;;;;32.97;25.50;100113.38;5584832;31;33877;-73
2023/07/03 11:25:49;;;;;;;12.35;7.60;;;;;;;33.28;25.98;100104.97;5585930;31;34142;-71
2023/07/03 11:28:55;;;;;;;9.05;6.78;;;;;;;35.16;24.22;100114.34;5542246;31;34053;-73
2023/07/03 11:31:59;;;;;;;12.50;7.30;;;;;;;36.49;22.58;100118.56;5567519;32;33699;-73
2023/07/03 11:35:03;;;;;;;9.95;6.87;;;;;;;37.34;22.56;100115.59;5574902;31;33770;-71
2023/07/03 11:38:09;;;;;;;15.90;7.28;;;;;;;40.11;19.84;100103.25;5586755;31;33711;-72
2023/07/03 11:41:15;;;;;;;13.60;7.00;;;;;;;35.37;24.22;100097.78;5586581;31;34688;-72
2023/07/03 11:44:27;;;;;;;11.90;7.30;;;;;;;34.04;25.69;100100.44;5586324;31;33778;-72
2023/07/03 11:47:33;;;;;;;9.45;6.70;;;;;;;34.35;25.83;100105.66;5589411;31;34756;-73
2023/07/03 11:50:35;;;;;;;13.27;6.57;;;;;;;33.87;26.03;100103.25;5586935;31;33904;-71
2023/07/03 11:53:40;;;;;;;11.27;6.00;;;;;;;34.15;26.38;100100.88;5586619;31;33662;-70
2023/07/03 11:56:48;;;;;;;10.50;6.65;;;;;;;34.95;25.54;100101.72;5586801;31;33881;-70
2023/07/03 11:59:52;;;;;;;13.60;6.55;;;;;;;34.02;26.14;100100.78;5586689;31;33998;-72
2023/07/03 12:02:56;;;;;;;11.85;6.75;;;;;;;34.07;26.41;100090.72;5585862;31;33899;-71
2023/07/03 12:06:00;;;;;;;9.25;6.32;;;;;;;32.40;29.41;100090.63;5583017;31;34256;-71
2023/07/03 12:09:20;;;;;;;11.57;6.55;;;;;;;32.65;28.79;100084.41;5575293;31;34633;-71
2023/07/03 12:12:26;;;;;;;11.18;7.35;;;;;;;32.51;29.25;100089.22;5569145;31;34939;-69
2023/07/03 12:15:29;;;;;;;14.25;7.28;;;;;;;32.16;28.93;100088.31;5572061;31;33842;-71
2023/07/03 12:18:34;;;;;;;11.57;6.90;;;;;;;30.61;30.86;100087.22;5566848;32;33821;-70
2023/07/03 12:21:43;;;;;;;11.10;6.90;;;;;;;31.57;31.27;100084.13;5566419;32;33894;-71
2023/07/03 12:24:46;;;;;;;11.12;6.95;;;;;;;31.15;30.67;100083.53;5566663;32;33927;-71
2023/07/03 12:27:50;;;;;;;17.12;7.68;;;;;;;31.48;30.18;100090.34;5567005;32;33918;-71
2023/07/03 12:31:16;;;;;;;13.43;8.00;;;;;;;31.15;29.99;100085.44;5566628;32;34405;-69
2023/07/03 12:34:24;;;;;;;13.98;8.73;;;;;;;30.52;30.97;100097.28;5566043;32;33877;-72
2023/07/03 12:37:27;;;;;;;15.40;8.07;;;;;;;29.23;33.14;100099.06;5566750;32;33762;-72
2023/07/03 12:40:30;;;;;;;12.63;8.00;;;;;;;30.82;31.89;100090.31;5566820;32;34890;-72
2023/07/03 12:43:34;;;;;;;13.48;7.60;;;;;;;31.19;30.93;100089.19;5566573;32;33847;-68
2023/07/03 12:46:40;;;;;;;15.02;8.18;;;;;;;30.75;31.72;100089.91;5552599;32;33848;-69
2023/07/03 12:49:55;;;;;;;15.82;8.82;;;;;;;29.92;32.44;100085.63;5566252;31;34220;-66
2023/07/03 12:53:00;;;;;;;12.88;7.90;;;;;;;30.02;33.56;100088.94;5583662;31;34490;-68
2023/07/03 12:56:08;;;;;;;11.90;8.13;;;;;;;29.71;33.09;100080.50;5582013;31;35373;-67
2023/07/03 12:59:16;;;;;;;14.57;7.70;;;;;;;29.76;33.26;100083.12;5592444;31;34705;-76
2023/07/03 13:02:22;;;;;;;15.03;8.30;;;;;;;29.27;34.41;100093.81;5592309;31;34127;-71
2023/07/03 13:05:26;;;;;;;13.73;8.35;;;;;;;29.14;33.95;100091.84;5592005;31;33831;-70
2023/07/03 13:08:29;;;;;;;15.07;8.63;;;;;;;29.07;33.88;100086.75;5592154;31;33711;-69
2023/07/03 13:11:39;;;;;;;14.07;8.52;;;;;;;29.05;34.20;100094.41;5592172;31;33765;-68
2023/07/03 13:14:58;;;;;;;15.50;8.70;;;;;;;28.95;34.84;100091.84;5592490;31;34459;-69
2023/07/03 13:18:05;;;;;;;13.73;8.70;;;;;;;29.15;34.83;100090.72;5591757;31;33600;-68
2023/07/03 13:21:08;;;;;;;12.80;8.25;;;;;;;29.44;35.33;100082.34;5590745;31;33678;-68
2023/07/03 13:24:14;;;;;;;13.88;9.10;;;;;;;29.31;35.51;100079.28;5572299;32;34247;-69
2023/07/03 13:27:23;;;;;;;13.13;8.27;;;;;;;29.18;35.24;100071.81;5572107;32;34932;-69
2023/07/03 13:30:31;;;;;;;18.60;9.33;;;;;;;29.41;35.60;100074.75;5572020;32;34285;-68
2023/07/03 13:33:37;;;;;;;13.77;8.95;;;;;;;29.51;36.12;100069.91;5589314;31;34063;-71
2023/07/03 13:36:56;;;;;;;16.65;8.93;;;;;;;29.35;35.69;100074.84;5589376;31;34354;-68
2023/07/03 13:39:59;;;;;;;28.38;9.23;;;;;;;29.52;35.91;100077.03;5591140;31;33741;-68
2023/07/03 13:43:04;;;;;;;21.10;8.93;;;;;;;29.55;36.20;100067.37;5590999;31;34983;-69
2023/07/03 13:46:08;;;;;;;17.27;9.15;;;;;;;29.42;36.91;100059.97;5590150;31;33939;-70
2023/07/03 13:49:14;;;;;;;16.80;8.98;;;;;;;30.02;35.00;100078.00;5590426;31;33890;-67
2023/07/03 13:52:16;;;;;;;15.70;9.20;;;;;;;30.86;33.98;100070.22;5589878;31;34998;-69
2023/07/03 13:55:19;;;;;;;13.43;8.32;;;;;;;29.76;36.08;100069.47;5583646;31;33758;-68
2023/07/03 13:58:22;;;;;;;18.40;9.30;;;;;;;28.95;37.17;100064.53;5589900;31;35130;-67
2023/07/03 14:01:25;;;;;;;17.77;9.55;;;;;;;28.41;38.67;100063.09;5585180;31;33876;-69
2023/07/03 14:04:29;;;;;;;19.55;8.68;;;;;;;28.13;39.20;100063.19;5582146;31;33973;-70
2023/07/03 14:07:31;;;;;;;15.98;8.85;;;;;;;28.41;40.32;100071.28;5589011;31;34648;-70
2023/07/03 14:10:34;;;;;;;14.87;9.20;;;;;;;28.84;39.04;100066.63;5584554;31;33915;-68
2023/07/03 14:13:38;;;;;;;15.43;9.23;;;;;;;28.64;39.01;100069.59;5581124;31;33741;-70
2023/07/03 14:16:40;;;;;;;13.43;8.90;;;;;;;28.63;39.13;100075.34;5567034;32;33794;-68
2023/07/03 14:19:43;;;;;;;15.00;9.15;;;;;;;28.40;39.34;100074.31;5570435;31;33935;-68
2023/07/03 14:22:48;;;;;;;15.88;8.98;;;;;;;28.58;39.48;100075.41;5584656;31;34620;-69